Time;durP1;ratioP1;P1;durP2;ratioP2;P2;SDS_P1;SDS_P2;PMS_P1;PMS_P2;Temp;Humidity;BMP_temperature;BMP_pressure;BME280_temperature;BME280_humidity;BME280_pressure;Samples;Min_cycle;Max_cycle;Signal;HPM_P1;HPM_P2
2022/03/17 00:00:58;;;;;;;53.75;33.83;;;;;;;0.34;88.18;101496.38;1457445;88;22484;-81
2022/03/17 00:03:25;;;;;;;49.45;32.50;;;;;;;0.32;88.52;101493.00;1475093;88;21462;-81
2022/03/17 00:05:52;;;;;;;50.05;32.50;;;;;;;0.32;87.75;101500.81;1477850;88;21553;-80
2022/03/17 00:08:19;;;;;;;64.07;34.67;;;;;;;0.35;87.77;101498.09;1467975;88;21360;-81
2022/03/17 00:10:46;;;;;;;56.08;34.00;;;;;;;0.36;87.59;101499.78;1474007;88;21426;-80
2022/03/17 00:13:13;;;;;;;56.13;36.30;;;;;;;0.30;87.74;101498.70;1473815;88;21389;-81
2022/03/17 00:15:40;;;;;;;55.30;33.83;;;;;;;0.26;87.17;101494.95;1479344;88;21389;-81
2022/03/17 00:18:07;;;;;;;58.90;37.13;;;;;;;0.25;87.69;101496.72;1474423;88;21588;-80
2022/03/17 00:20:34;;;;;;;53.92;34.53;;;;;;;0.25;87.67;101500.62;1450893;88;21404;-80
2022/03/17 00:23:02;;;;;;;52.10;33.42;;;;;;;0.25;87.50;101506.29;1476761;86;21426;-81
2022/03/17 00:25:32;;;;;;;48.95;31.10;;;;;;;0.22;87.50;101498.13;1489434;87;21396;-80
2022/03/17 00:27:59;;;;;;;53.87;34.25;;;;;;;0.18;86.88;101498.70;1432078;90;21301;-80
2022/03/17 00:30:27;;;;;;;48.28;29.40;;;;;;;0.16;86.75;101503.56;1470817;87;21382;-80
2022/03/17 00:32:54;;;;;;;56.08;34.27;;;;;;;0.13;86.84;101504.97;1455806;87;21368;-81
2022/03/17 00:35:38;;;;;;;46.92;30.35;;;;;;;0.10;87.37;101505.08;1429570;90;21412;-82
2022/03/17 00:38:08;;;;;;;53.05;33.18;;;;;;;0.07;87.04;101502.59;1491761;87;21368;-82
2022/03/17 00:40:38;;;;;;;50.33;32.05;;;;;;;0.09;86.89;101513.35;1447912;87;23566;-82
2022/03/17 00:43:07;;;;;;;54.48;33.75;;;;;;;0.10;87.21;101510.29;1361237;90;21302;-82
2022/03/17 00:45:34;;;;;;;47.33;31.35;;;;;;;0.10;87.28;101509.83;1471534;87;21331;-82
2022/03/17 00:48:02;;;;;;;48.30;30.97;;;;;;;0.10;87.09;101515.50;1430377;90;21361;-82
2022/03/17 00:50:29;;;;;;;50.38;31.70;;;;;;;0.08;87.12;101514.69;1494684;87;21529;-82
2022/03/17 00:52:56;;;;;;;45.70;29.32;;;;;;;0.05;86.63;101517.41;1494236;87;21330;-83
2022/03/17 00:55:23;;;;;;;48.50;32.20;;;;;;;-0.01;86.98;101518.01;1431082;90;21457;-83
2022/03/17 00:57:50;;;;;;;55.50;34.00;;;;;;;0.02;86.88;101517.05;1487893;87;21338;-82
2022/03/17 01:00:18;;;;;;;51.92;32.33;;;;;;;0.06;86.79;101521.70;1468890;87;22424;-82
2022/03/17 01:02:53;;;;;;;53.40;33.58;;;;;;;0.05;86.53;101525.21;1475835;87;21332;-83
2022/03/17 01:05:23;;;;;;;49.33;32.25;;;;;;;0.09;86.70;101529.43;1476507;88;21412;-82
2022/03/17 01:07:53;;;;;;;40.10;23.60;;;;;;;0.10;86.74;101536.32;1472658;88;21507;-80
2022/03/17 01:10:22;;;;;;;45.40;30.68;;;;;;;0.04;86.67;101532.64;1475197;88;21421;-81
2022/03/17 01:12:50;;;;;;;49.60;32.63;;;;;;;0.02;86.65;101538.34;1416012;88;21369;-82
2022/03/17 01:15:19;;;;;;;50.85;32.50;;;;;;;-0.05;86.88;101537.25;1473687;88;21649;-83
2022/03/17 01:17:46;;;;;;;45.90;30.37;;;;;;;-0.06;86.65;101546.40;1483056;88;21414;-82
2022/03/17 01:20:13;;;;;;;55.63;33.98;;;;;;;-0.04;86.79;101545.45;1478753;88;21556;-82
2022/03/17 01:22:40;;;;;;;48.10;30.43;;;;;;;-0.05;86.70;101550.72;1458261;88;21561;-82
2022/03/17 01:25:08;;;;;;;46.70;31.00;;;;;;;-0.06;86.46;101553.78;1469670;87;23390;-82
2022/03/17 01:27:35;;;;;;;53.23;32.15;;;;;;;-0.01;86.70;101545.34;1473446;88;21351;-82
2022/03/17 01:30:09;;;;;;;48.40;30.20;;;;;;;0.02;87.19;101552.20;1467194;88;21512;-83
2022/03/17 01:32:37;;;;;;;51.20;31.02;;;;;;;0.04;86.67;101555.61;1423544;88;21293;-83
2022/03/17 01:35:07;;;;;;;52.78;31.85;;;;;;;0.05;86.78;101553.84;1453914;88;21344;-83
2022/03/17 01:37:35;;;;;;;55.23;33.90;;;;;;;0.01;87.05;101553.56;1442547;88;21388;-83
2022/03/17 01:40:03;;;;;;;46.28;30.32;;;;;;;-0.05;88.05;101558.07;1455520;88;22283;-83
2022/03/17 01:42:30;;;;;;;46.92;31.95;;;;;;;-0.06;88.82;101552.91;1464768;88;21380;-83
2022/03/17 01:44:57;;;;;;;47.38;30.15;;;;;;;-0.12;88.64;101557.86;1469050;88;21343;-83
2022/03/17 01:47:27;;;;;;;49.85;31.12;;;;;;;-0.18;88.41;101560.67;1466113;88;22370;-83
2022/03/17 01:50:03;;;;;;;49.98;31.82;;;;;;;-0.22;89.51;101561.69;1471331;88;21505;-82
2022/03/17 01:52:31;;;;;;;55.67;32.80;;;;;;;-0.21;89.78;101557.33;1468177;88;22319;-83
2022/03/17 01:54:58;;;;;;;50.05;32.70;;;;;;;-0.22;90.30;101553.89;1474176;88;21387;-82
2022/03/17 01:57:25;;;;;;;50.73;31.33;;;;;;;-0.21;90.69;101554.73;1473113;88;21321;-82
2022/03/17 01:59:53;;;;;;;53.00;30.32;;;;;;;-0.20;91.08;101556.00;1465955;88;23197;-82
2022/03/17 02:02:20;;;;;;;53.15;32.00;;;;;;;-0.21;91.46;101565.98;1471066;88;21358;-83
2022/03/17 02:04:48;;;;;;;45.80;30.08;;;;;;;-0.22;92.01;101569.95;1472998;88;21469;-83
2022/03/17 02:07:16;;;;;;;45.90;29.57;;;;;;;-0.23;91.74;101570.41;1469533;88;21505;-83
2022/03/17 02:09:44;;;;;;;52.80;33.08;;;;;;;-0.20;90.63;101571.61;1394346;88;21358;-83
2022/03/17 02:15:01;;;;;;;53.38;31.87;;;;;;;-0.16;90.99;101578.40;1555239;88;22068;-83
2022/03/17 02:17:32;;;;;;;46.33;30.23;;;;;;;-0.18;92.58;101578.89;1391075;88;21314;-83
2022/03/17 02:20:00;;;;;;;53.35;32.38;;;;;;;-0.20;93.26;101579.41;1525373;88;21306;-83
2022/03/17 02:22:29;;;;;;;51.68;30.72;;;;;;;-0.21;92.52;101577.69;1497962;88;21978;-83
2022/03/17 02:27:46;;;;;;;53.75;35.23;;;;;;;-0.24;92.73;101580.39;1471148;88;21631;-82
2022/03/17 02:30:20;;;;;;;58.73;34.23;;;;;;;-0.23;92.34;101584.72;1474129;88;21476;-84
2022/03/17 02:32:48;;;;;;;57.35;33.35;;;;;;;-0.24;91.93;101589.50;1469297;88;21482;-84
2022/03/17 02:35:22;;;;;;;55.80;34.33;;;;;;;-0.25;91.55;101590.41;1476580;88;21410;-84
2022/03/17 02:37:48;;;;;;;49.65;31.07;;;;;;;-0.25;90.92;101586.52;1467760;88;22873;-82
2022/03/17 02:40:15;;;;;;;54.63;30.75;;;;;;;-0.24;90.23;101592.95;1473724;88;21624;-82
2022/03/17 02:42:42;;;;;;;47.83;30.20;;;;;;;-0.25;89.58;101596.92;1469882;88;23249;-82
2022/03/17 02:45:10;;;;;;;44.63;28.45;;;;;;;-0.28;89.19;101600.92;1472676;88;21424;-82
2022/03/17 02:47:38;;;;;;;50.08;33.15;;;;;;;-0.32;88.92;101604.50;1476865;88;21542;-82
2022/03/17 02:50:07;;;;;;;57.58;34.27;;;;;;;-0.33;88.82;101609.31;1551617;88;21381;-83
2022/03/17 02:52:34;;;;;;;59.33;34.25;;;;;;;-0.33;88.92;101621.02;1436835;88;23498;-84
2022/03/17 02:55:02;;;;;;;53.38;32.50;;;;;;;-0.32;88.93;101625.31;1478212;88;21394;-84
2022/03/17 02:57:29;;;;;;;58.15;32.75;;;;;;;-0.34;89.18;101629.73;1468729;88;21438;-83
2022/03/17 02:59:56;;;;;;;61.90;36.63;;;;;;;-0.35;89.64;101634.06;1471071;88;21336;-83
2022/03/17 03:02:24;;;;;;;59.85;36.45;;;;;;;-0.37;89.83;101637.64;1463323;88;21513;-84
2022/03/17 03:04:51;;;;;;;59.15;36.53;;;;;;;-0.39;90.17;101637.67;1471995;88;21343;-84
2022/03/17 03:07:18;;;;;;;54.55;33.85;;;;;;;-0.40;90.08;101640.31;1468758;88;21888;-84
2022/03/17 03:09:45;;;;;;;51.90;33.10;;;;;;;-0.42;90.06;101639.53;1474128;88;21350;-84
2022/03/17 03:12:12;;;;;;;55.15;33.25;;;;;;;-0.42;89.94;101648.17;1475094;88;21401;-83
2022/03/17 03:14:39;;;;;;;59.00;36.00;;;;;;;-0.42;89.83;101649.94;1475867;88;21402;-84
2022/03/17 03:17:06;;;;;;;57.10;33.00;;;;;;;-0.46;90.08;101645.28;1474879;88;22305;-80
2022/03/17 03:19:34;;;;;;;57.38;32.15;;;;;;;-0.44;89.68;101650.42;1475106;88;21372;-80
2022/03/17 03:22:02;;;;;;;51.20;31.82;;;;;;;-0.42;89.24;101660.34;1466412;88;21483;-80
2022/03/17 03:24:29;;;;;;;56.40;35.15;;;;;;;-0.42;88.91;101653.84;1462668;87;21440;-80
2022/03/17 03:26:56;;;;;;;57.62;32.73;;;;;;;-0.50;89.88;101656.20;1483753;87;21482;-81
2022/03/17 03:29:23;;;;;;;57.40;36.30;;;;;;;-0.49;89.77;101656.63;1465283;87;22508;-80
2022/03/17 03:31:52;;;;;;;59.73;37.10;;;;;;;-0.47;89.61;101654.81;1481414;87;21409;-81
2022/03/17 03:34:21;;;;;;;56.88;36.23;;;;;;;-0.48;90.69;101664.82;1459012;87;21379;-84
2022/03/17 03:39:36;;;;;;;58.10;36.73;;;;;;;-0.41;89.82;101669.83;1486315;87;22606;-81
2022/03/17 03:42:05;;;;;;;54.98;33.40;;;;;;;-0.42;90.66;101672.05;1533381;87;21350;-81
2022/03/17 03:44:32;;;;;;;52.90;34.18;;;;;;;-0.42;90.90;101675.95;1477619;87;21361;-81
2022/03/17 03:46:59;;;;;;;58.33;37.60;;;;;;;-0.48;91.24;101680.43;1488060;87;21357;-82
2022/03/17 03:49:26;;;;;;;58.15;37.63;;;;;;;-0.47;90.95;101674.31;1478081;87;21384;-82
2022/03/17 03:51:53;;;;;;;58.08;33.95;;;;;;;-0.40;90.98;101674.13;1477689;87;22377;-82
2022/03/17 03:54:21;;;;;;;58.05;38.17;;;;;;;-0.36;90.92;101675.75;1488329;87;21365;-82
2022/03/17 03:56:51;;;;;;;58.58;36.68;;;;;;;-0.34;90.72;101681.77;1483321;87;22800;-82
2022/03/17 03:59:22;;;;;;;60.92;38.30;;;;;;;-0.32;90.50;101680.80;1478762;87;21408;-80
2022/03/17 04:01:53;;;;;;;58.48;38.23;;;;;;;-0.31;90.31;101685.58;1483030;87;21475;-80
2022/03/17 04:04:22;;;;;;;58.38;38.98;;;;;;;-0.31;90.23;101692.08;1477028;87;21468;-80
2022/03/17 04:06:53;;;;;;;65.30;40.25;;;;;;;-0.31;90.24;101698.58;1567400;87;22194;-80
2022/03/17 04:09:24;;;;;;;61.20;39.63;;;;;;;-0.31;90.34;101707.69;1403002;87;21217;-80
2022/03/17 04:11:52;;;;;;;65.97;39.05;;;;;;;-0.33;90.30;101704.27;1402955;87;21306;-81
2022/03/17 04:14:20;;;;;;;58.08;39.53;;;;;;;-0.32;90.15;101711.17;1451397;87;22465;-81
2022/03/17 04:16:47;;;;;;;56.23;36.03;;;;;;;-0.33;90.20;101710.78;1483594;87;21416;-82
2022/03/17 04:19:18;;;;;;;70.32;40.15;;;;;;;-0.30;89.87;101715.43;1478929;87;21882;-81
2022/03/17 04:21:45;;;;;;;63.15;39.53;;;;;;;-0.30;89.81;101724.99;1481045;87;21608;-81
2022/03/17 04:24:13;;;;;;;60.30;37.33;;;;;;;-0.33;89.65;101731.59;1465667;87;22279;-81
2022/03/17 04:26:40;;;;;;;61.50;38.55;;;;;;;-0.32;89.35;101729.38;1411610;87;21372;-81
2022/03/17 04:29:09;;;;;;;55.40;36.93;;;;;;;-0.34;89.17;101732.50;1478039;87;21416;-82
2022/03/17 04:31:41;;;;;;;56.10;36.85;;;;;;;-0.34;89.12;101737.70;1455955;87;21474;-81
2022/03/17 04:34:10;;;;;;;67.00;38.23;;;;;;;-0.37;89.18;101737.80;1498058;87;22302;-82
2022/03/17 04:36:37;;;;;;;57.65;36.70;;;;;;;-0.40;89.06;101739.16;1455601;87;21284;-81
2022/03/17 04:39:05;;;;;;;58.28;36.03;;;;;;;-0.41;89.02;101741.36;1555224;87;21203;-80
2022/03/17 04:41:32;;;;;;;62.17;38.78;;;;;;;-0.38;89.21;101747.33;1474106;87;21441;-80
2022/03/17 04:43:59;;;;;;;67.87;40.50;;;;;;;-0.39;89.51;101748.23;1459096;89;21381;-81
2022/03/17 04:46:26;;;;;;;68.33;40.98;;;;;;;-0.38;89.21;101760.78;1463608;89;21372;-81
2022/03/17 04:48:53;;;;;;;62.83;40.52;;;;;;;-0.36;89.77;101756.40;1463853;89;21415;-81
2022/03/17 04:51:20;;;;;;;61.23;39.20;;;;;;;-0.34;89.65;101760.66;1452611;89;21572;-81
2022/03/17 04:53:47;;;;;;;63.15;41.75;;;;;;;-0.37;89.78;101760.75;1440528;89;21867;-81
2022/03/17 04:56:17;;;;;;;65.35;42.98;;;;;;;-0.36;89.63;101759.00;1461612;89;22245;-81
2022/03/17 04:58:45;;;;;;;71.12;44.45;;;;;;;-0.36;89.80;101762.90;1505699;87;21446;-81
2022/03/17 05:01:14;;;;;;;68.50;44.05;;;;;;;-0.36;89.68;101764.20;1474023;87;21461;-81
2022/03/17 05:03:42;;;;;;;70.22;43.98;;;;;;;-0.37;89.62;101772.91;1482108;87;21372;-80
2022/03/17 05:06:14;;;;;;;65.92;41.58;;;;;;;-0.41;89.37;101771.28;1466401;89;21498;-81
2022/03/17 05:08:42;;;;;;;65.10;39.85;;;;;;;-0.47;88.88;101773.16;1543747;89;21247;-81
2022/03/17 05:11:10;;;;;;;57.15;35.98;;;;;;;-0.52;88.93;101772.45;1394002;89;22415;-81
2022/03/17 05:13:39;;;;;;;59.73;38.67;;;;;;;-0.63;88.81;101773.63;1419656;89;21314;-82
2022/03/17 05:16:07;;;;;;;63.28;37.30;;;;;;;-0.69;88.34;101779.43;1397726;89;21269;-81
2022/03/17 05:18:35;;;;;;;61.77;40.00;;;;;;;-0.75;88.73;101783.50;1424409;89;21409;-81
2022/03/17 05:21:03;;;;;;;58.13;36.88;;;;;;;-0.77;89.08;101784.44;1463637;87;21379;-85
2022/03/17 05:23:33;;;;;;;64.67;40.75;;;;;;;-0.79;89.56;101794.02;1467983;87;22240;-82
2022/03/17 05:26:01;;;;;;;57.80;37.73;;;;;;;-0.80;90.39;101785.82;1469550;87;21497;-82
2022/03/17 05:28:28;;;;;;;61.83;40.20;;;;;;;-0.77;90.59;101793.53;1460194;89;21453;-82
2022/03/17 05:30:55;;;;;;;70.03;40.40;;;;;;;-0.76;90.66;101794.78;1458069;89;23204;-82
2022/03/17 05:33:23;;;;;;;65.60;38.42;;;;;;;-0.79;90.89;101797.46;1461361;89;21358;-81
2022/03/17 05:35:49;;;;;;;67.47;43.73;;;;;;;-0.82;91.73;101798.00;1461862;89;22524;-80
2022/03/17 05:38:16;;;;;;;70.47;41.35;;;;;;;-0.75;91.49;101804.30;1471365;87;21646;-80
2022/03/17 05:40:44;;;;;;;73.25;43.35;;;;;;;-0.67;92.04;101804.07;1459264;87;23266;-80
2022/03/17 05:43:11;;;;;;;66.47;42.53;;;;;;;-0.56;91.98;101805.08;1456271;89;21343;-81
2022/03/17 05:45:41;;;;;;;67.35;43.92;;;;;;;-0.43;91.91;101814.68;1462996;87;21291;-81
2022/03/17 05:48:09;;;;;;;72.37;43.75;;;;;;;-0.33;92.12;101807.03;1479593;86;21372;-81
2022/03/17 05:50:41;;;;;;;60.23;39.42;;;;;;;-0.22;91.83;101816.69;1569035;86;22051;-81
2022/03/17 05:53:09;;;;;;;;;;;;;;;-0.12;92.21;101818.56;1483187;87;21321;-81
2022/03/17 05:55:36;;;;;;;72.47;44.88;;;;;;;-0.02;92.00;101829.12;1471188;87;20323;-81
2022/03/17 05:58:05;;;;;;;77.08;46.00;;;;;;;0.10;91.84;101826.59;1483549;87;21372;-81
2022/03/17 06:00:33;;;;;;;75.45;46.73;;;;;;;0.18;91.89;101831.13;1493533;87;21921;-81
2022/03/17 06:03:01;;;;;;;79.60;46.60;;;;;;;0.31;91.76;101829.83;1405857;87;21240;-80
2022/03/17 06:05:29;;;;;;;67.97;43.45;;;;;;;0.44;91.49;101842.88;1534024;87;22259;-80
2022/03/17 06:08:00;;;;;;;72.32;43.58;;;;;;;0.55;91.28;101837.34;1495386;87;21961;-78
2022/03/17 06:10:33;;;;;;;71.10;42.67;;;;;;;0.69;90.89;101834.27;1485410;87;21276;-79
2022/03/17 06:13:04;;;;;;;78.40;48.10;;;;;;;0.80;90.81;101841.28;1473046;87;22333;-79
2022/03/17 06:15:34;;;;;;;300.82;153.55;;;;;;;0.93;90.39;101846.11;1484319;87;21474;-78
2022/03/17 06:18:04;;;;;;;331.13;162.75;;;;;;;0.97;89.56;101838.13;1478396;87;21247;-82
2022/03/17 06:20:34;;;;;;;456.90;238.85;;;;;;;1.06;89.35;101850.00;1471707;87;22311;-80
2022/03/17 06:23:05;;;;;;;203.42;117.57;;;;;;;1.19;89.46;101842.16;1478492;87;21318;-78
2022/03/17 06:25:34;;;;;;;;;;;;;;;1.28;88.82;101845.75;1500692;87;21497;-77
2022/03/17 06:28:04;;;;;;;86.23;54.13;;;;;;;1.38;88.86;101846.73;1393489;87;20342;-78
2022/03/17 06:30:31;;;;;;;83.47;49.57;;;;;;;1.48;88.75;101841.14;1480817;87;22051;-78
2022/03/17 06:32:59;;;;;;;78.30;47.10;;;;;;;1.60;88.79;101846.37;1485768;87;22078;-78
2022/03/17 06:35:27;;;;;;;82.93;50.93;;;;;;;1.66;87.89;101851.83;1483220;87;21438;-78
2022/03/17 06:37:58;;;;;;;65.80;42.67;;;;;;;1.75;87.23;101858.86;1486327;87;22598;-79
2022/03/17 06:40:28;;;;;;;75.62;48.52;;;;;;;1.84;86.87;101868.56;1489343;87;21744;-79
2022/03/17 06:42:56;;;;;;;73.83;45.83;;;;;;;1.95;86.54;101867.26;1564993;87;21358;-79
2022/03/17 06:45:24;;;;;;;88.97;59.43;;;;;;;2.07;86.36;101876.39;1446998;87;21379;-79
2022/03/17 06:47:51;;;;;;;76.43;49.43;;;;;;;2.12;84.52;101873.16;1473937;87;21565;-79
2022/03/17 06:50:22;;;;;;;93.03;53.30;;;;;;;2.28;85.63;101877.82;1475684;87;21556;-79
2022/03/17 06:52:52;;;;;;;107.35;65.08;;;;;;;2.39;84.41;101879.56;1479469;87;21593;-79
2022/03/17 06:55:20;;;;;;;108.07;62.30;;;;;;;2.53;84.92;101889.00;1487738;87;21514;-79
2022/03/17 06:57:47;;;;;;;112.50;65.50;;;;;;;2.65;83.74;101891.61;1488226;87;21638;-79
2022/03/17 07:00:17;;;;;;;92.90;58.40;;;;;;;2.76;83.76;101887.23;1479987;87;21673;-79
2022/03/17 07:02:45;;;;;;;79.80;48.83;;;;;;;2.91;84.22;101891.88;1490992;87;22328;-79
2022/03/17 07:05:12;;;;;;;76.17;47.53;;;;;;;3.05;83.91;101890.84;1406722;87;21329;-78
2022/03/17 07:07:39;;;;;;;81.07;48.47;;;;;;;3.14;81.75;101890.45;1488062;87;22122;-78
2022/03/17 07:10:08;;;;;;;86.87;51.03;;;;;;;3.25;81.79;101890.45;1489012;87;21692;-78
2022/03/17 07:12:56;;;;;;;83.63;50.13;;;;;;;3.31;79.70;101895.42;1475949;87;21626;-77
2022/03/17 07:15:23;;;;;;;93.70;52.33;;;;;;;3.39;80.27;101894.20;1448360;89;21735;-78
2022/03/17 07:17:50;;;;;;;102.83;61.47;;;;;;;3.49;79.67;101889.42;1455289;89;21637;-78
2022/03/17 07:20:21;;;;;;;123.33;69.50;;;;;;;3.58;78.74;101891.63;1433428;89;21749;-80
2022/03/17 07:22:49;;;;;;;82.85;50.92;;;;;;;3.62;75.28;101889.72;1451048;89;22704;-80
2022/03/17 07:25:17;;;;;;;102.40;55.87;;;;;;;3.78;77.41;101895.14;1460703;89;21421;-80
2022/03/17 07:27:47;;;;;;;77.07;45.90;;;;;;;4.03;77.06;101884.42;1455836;89;21705;-79
2022/03/17 07:30:22;;;;;;;72.53;43.43;;;;;;;4.21;76.30;101889.28;1450930;89;22784;-79
2022/03/17 07:32:59;;;;;;;108.27;62.37;;;;;;;4.21;76.30;101889.28;1460365;89;22897;-77
2022/03/17 07:35:23;;;;;;;86.30;52.07;;;;;;;4.34;75.61;101894.78;1456461;89;23153;-77
2022/03/17 07:37:50;;;;;;;79.33;44.07;;;;;;;4.55;72.98;101896.41;1451405;89;22196;-78
2022/03/17 07:40:17;;;;;;;95.37;51.63;;;;;;;4.55;72.98;101896.41;1456952;89;22376;-77
2022/03/17 07:42:44;;;;;;;80.40;49.83;;;;;;;4.66;73.69;101893.25;1457067;89;22190;-81
2022/03/17 07:45:11;;;;;;;92.17;53.97;;;;;;;4.80;72.16;101900.00;1458356;89;22106;-80
2022/03/17 07:47:50;;;;;;;71.37;42.27;;;;;;;4.90;71.87;101898.64;1432248;89;22088;-80
2022/03/17 07:50:18;;;;;;;86.73;48.83;;;;;;;5.00;69.75;101900.80;1441910;89;22022;-80
2022/03/17 07:52:46;;;;;;;69.30;42.87;;;;;;;5.18;71.49;101897.28;1469980;89;23018;-80
2022/03/17 07:55:13;;;;;;;67.33;41.60;;;;;;;5.29;70.17;101900.66;1447612;88;22395;-80
2022/03/17 07:57:41;;;;;;;69.07;42.13;;;;;;;5.36;68.24;101898.97;1456568;89;22133;-80
2022/03/17 08:00:12;;;;;;;72.93;47.80;;;;;;;5.48;68.40;101892.23;1458530;89;23067;-80
2022/03/17 08:02:43;;;;;;;76.07;47.03;;;;;;;5.61;67.66;101905.57;1454156;89;23016;-79
2022/03/17 08:05:14;;;;;;;71.17;41.92;;;;;;;5.77;67.64;101909.11;1450365;89;22078;-79
2022/03/17 08:07:41;;;;;;;69.50;40.58;;;;;;;5.89;67.76;101909.77;1458159;89;21426;-80
2022/03/17 08:10:09;;;;;;;67.33;39.97;;;;;;;5.89;62.08;101913.71;1457006;89;21390;-79
2022/03/17 08:12:37;;;;;;;71.60;43.77;;;;;;;6.01;62.33;101911.39;1456188;89;21405;-79
2022/03/17 08:15:05;;;;;;;54.80;36.50;;;;;;;6.11;64.51;101909.98;1441959;89;21604;-79
2022/03/17 08:17:33;;;;;;;68.83;41.97;;;;;;;6.27;64.78;101913.49;1434091;91;21392;-80
2022/03/17 08:20:01;;;;;;;65.60;40.00;;;;;;;6.45;65.29;101913.42;1387777;89;21371;-80
2022/03/17 08:22:28;;;;;;;57.00;36.70;;;;;;;6.62;64.17;101919.91;1437478;88;21565;-80
2022/03/17 08:24:54;;;;;;;77.87;44.63;;;;;;;6.80;63.88;101917.17;1446600;90;22537;-80
2022/03/17 08:27:21;;;;;;;62.67;37.87;;;;;;;6.92;63.24;101919.94;1451186;90;21399;-80
2022/03/17 08:29:48;;;;;;;77.10;46.43;;;;;;;6.94;60.32;101921.19;1446327;89;22508;-80
2022/03/17 08:32:17;;;;;;;84.83;52.43;;;;;;;7.07;61.84;101920.00;1439569;90;21874;-80
2022/03/17 08:34:44;;;;;;;79.17;47.30;;;;;;;7.16;61.26;101921.66;1442432;89;21347;-80
2022/03/17 08:37:11;;;;;;;57.93;37.43;;;;;;;7.31;61.05;101929.13;1442313;89;21577;-81
2022/03/17 08:39:38;;;;;;;67.07;41.10;;;;;;;7.41;61.47;101922.83;1444633;88;22449;-82
2022/03/17 08:42:06;;;;;;;64.87;41.17;;;;;;;7.39;60.09;101919.43;1468456;86;21775;-85
2022/03/17 08:44:34;;;;;;;59.23;38.90;;;;;;;7.49;60.81;101917.97;1417945;87;21641;-84
2022/03/17 08:49:46;;;;;;;57.33;35.50;;;;;;;7.88;61.66;101917.36;1409874;92;21400;-83
2022/03/17 08:52:13;;;;;;;50.23;32.47;;;;;;;8.10;60.79;101915.55;1408236;92;21450;-85
2022/03/17 08:54:44;;;;;;;54.43;36.67;;;;;;;8.29;58.62;101914.41;1406910;92;21362;-84
2022/03/17 08:57:12;;;;;;;54.30;35.92;;;;;;;8.62;59.20;101911.91;1404731;92;22396;-83
2022/03/17 08:59:39;;;;;;;54.53;36.30;;;;;;;8.62;59.20;101911.91;1394684;92;21540;-84
2022/03/17 09:02:14;;;;;;;59.00;37.97;;;;;;;8.79;58.07;101917.79;1409420;92;21407;-85
2022/03/17 09:04:41;;;;;;;58.90;33.33;;;;;;;8.93;57.93;101923.50;1410279;92;21392;-84
2022/03/17 09:07:08;;;;;;;57.83;34.00;;;;;;;9.10;56.45;101924.19;1411165;92;22419;-84
2022/03/17 09:09:37;;;;;;;52.87;31.77;;;;;;;9.06;56.10;101927.48;1382144;92;21421;-84
2022/03/17 09:12:08;;;;;;;46.57;31.90;;;;;;;9.40;54.97;101926.56;1411131;92;21465;-84
2022/03/17 09:14:40;;;;;;;53.00;33.25;;;;;;;9.75;56.86;101934.73;1395354;92;22411;-82
2022/03/17 09:17:07;;;;;;;51.53;32.37;;;;;;;10.10;55.22;101930.14;1410372;92;21494;-81
2022/03/17 09:19:34;;;;;;;53.47;30.90;;;;;;;10.26;51.29;101931.21;1410731;92;21584;-80
2022/03/17 09:22:01;;;;;;;47.80;32.20;;;;;;;10.48;48.59;101931.89;1390821;94;22333;-80
2022/03/17 09:24:30;;;;;;;43.80;29.83;;;;;;;10.62;49.67;101939.69;1396831;93;21453;-80
2022/03/17 09:27:00;;;;;;;45.43;30.17;;;;;;;10.79;48.05;101934.00;1368977;95;21658;-80
2022/03/17 09:29:28;;;;;;;41.53;26.07;;;;;;;11.05;49.36;101937.86;1386760;94;21472;-79
2022/03/17 09:31:58;;;;;;;42.03;27.83;;;;;;;11.28;45.98;101942.77;1394765;93;21512;-80
2022/03/17 09:34:24;;;;;;;38.40;26.97;;;;;;;11.35;46.92;101943.15;1373448;95;21650;-81
2022/03/17 09:36:51;;;;;;;43.23;27.93;;;;;;;11.24;48.00;101939.48;1392184;94;21501;-81
2022/03/17 09:42:05;;;;;;;52.07;27.93;;;;;;;11.39;44.80;101935.31;1371945;95;21451;-81
2022/03/17 09:44:32;;;;;;;37.87;24.90;;;;;;;11.52;46.79;101946.69;1396195;93;21465;-81
2022/03/17 09:47:02;;;;;;;36.73;26.27;;;;;;;11.66;44.07;101947.81;1399400;93;22310;-81
2022/03/17 09:49:29;;;;;;;33.13;23.77;;;;;;;11.73;42.21;101948.17;1370364;95;21606;-81
2022/03/17 09:51:58;;;;;;;38.13;26.50;;;;;;;11.80;43.48;101945.91;1390385;93;21413;-81
2022/03/17 09:54:25;;;;;;;40.97;27.40;;;;;;;11.89;43.28;101939.92;1397013;93;21428;-81
2022/03/17 09:56:52;;;;;;;72.37;31.43;;;;;;;11.96;42.09;101944.61;1392243;94;21361;-81
2022/03/17 09:59:19;;;;;;;39.67;28.53;;;;;;;11.95;43.33;101936.78;1387415;93;21510;-81
2022/03/17 10:01:46;;;;;;;37.37;25.23;;;;;;;12.02;44.43;101940.63;1398118;93;21371;-83
2022/03/17 10:04:15;;;;;;;40.73;26.07;;;;;;;12.12;42.45;101932.33;1372496;95;21445;-83
2022/03/17 10:06:42;;;;;;;41.17;26.73;;;;;;;12.10;43.30;101939.55;1393018;93;21383;-83
2022/03/17 10:09:10;;;;;;;38.77;26.40;;;;;;;12.15;43.54;101938.72;1397680;93;21541;-83
2022/03/17 10:11:38;;;;;;;40.30;26.17;;;;;;;12.19;40.88;101933.52;1369670;95;21510;-83
2022/03/17 10:14:06;;;;;;;41.37;24.93;;;;;;;12.31;43.26;101941.47;1392289;93;21413;-83
2022/03/17 10:16:33;;;;;;;37.50;25.73;;;;;;;12.27;39.99;101948.84;1399316;93;21476;-83
2022/03/17 10:19:06;;;;;;;35.03;22.90;;;;;;;12.37;42.12;101947.62;1379330;95;21414;-83
2022/03/17 10:21:37;;;;;;;36.97;22.67;;;;;;;12.47;40.69;101949.91;1392262;94;22352;-82
2022/03/17 10:24:08;;;;;;;30.70;22.22;;;;;;;12.53;40.13;101948.09;1320011;93;21258;-83
2022/03/17 10:26:52;;;;;;;32.50;22.70;;;;;;;12.71;39.62;101947.57;1357565;99;22580;-83
2022/03/17 10:29:23;;;;;;;41.73;28.27;;;;;;;12.83;40.78;101948.77;1280609;99;21534;-83
2022/03/17 10:32:04;;;;;;;63.23;40.17;;;;;;;12.85;37.36;101952.11;1334412;98;21533;-83
2022/03/17 10:34:36;;;;;;;47.30;31.17;;;;;;;12.96;40.40;101955.23;1300113;100;21573;-83
2022/03/17 10:37:10;;;;;;;37.50;25.07;;;;;;;13.08;40.47;101951.55;1312552;100;21536;-82
2022/03/17 10:39:49;;;;;;;35.53;24.00;;;;;;;13.16;38.18;101948.27;1312466;100;21626;-82
2022/03/17 10:42:24;;;;;;;36.87;25.47;;;;;;;13.08;37.95;101950.72;1315017;99;22347;-83
2022/03/17 10:44:55;;;;;;;39.07;24.47;;;;;;;13.29;38.84;101961.41;1315117;99;21719;-83
2022/03/17 10:47:37;;;;;;;33.07;23.73;;;;;;;13.49;37.99;101949.09;1336981;98;21586;-83
2022/03/17 10:50:16;;;;;;;39.93;27.13;;;;;;;13.38;37.73;101951.81;1401171;98;22141;-83
2022/03/17 10:52:52;;;;;;;35.47;25.93;;;;;;;13.44;38.64;101947.34;1276611;101;21380;-82
2022/03/17 10:55:32;;;;;;;37.57;25.33;;;;;;;13.46;38.08;101947.54;1371018;98;21431;-82
2022/03/17 10:58:17;;;;;;;58.90;39.60;;;;;;;13.62;39.50;101948.42;1350327;100;21517;-83
2022/03/17 11:00:52;;;;;;;41.53;25.53;;;;;;;13.83;38.23;101941.75;1374678;98;21378;-83
2022/03/17 11:03:21;;;;;;;44.87;31.57;;;;;;;13.89;38.08;101938.55;1327005;95;22393;-84
2022/03/17 11:05:50;;;;;;;39.63;26.83;;;;;;;13.82;37.13;101942.73;1379853;95;21410;-83
2022/03/17 11:08:20;;;;;;;33.60;23.13;;;;;;;13.89;37.01;101937.22;1352695;95;21451;-84
2022/03/17 11:10:47;;;;;;;33.57;23.93;;;;;;;13.57;33.80;101937.82;1293061;96;21402;-84
2022/03/17 11:13:14;;;;;;;35.67;23.30;;;;;;;13.48;35.68;101938.11;1401542;95;21569;-84
2022/03/17 11:15:56;;;;;;;36.93;26.77;;;;;;;13.41;36.08;101943.12;1439613;94;21288;-82
2022/03/17 11:18:25;;;;;;;36.23;25.27;;;;;;;13.44;36.18;101933.55;1356680;95;21472;-82
2022/03/17 11:21:21;;;;;;;36.00;26.47;;;;;;;13.63;37.75;101942.61;1370240;95;22518;-83
2022/03/17 11:24:04;;;;;;;36.97;26.43;;;;;;;13.97;37.58;101933.42;1356989;96;21598;-82
2022/03/17 11:26:35;;;;;;;38.27;28.47;;;;;;;13.97;34.98;101932.09;1399701;93;21509;-81
2022/03/17 11:29:08;;;;;;;40.40;26.20;;;;;;;13.65;35.95;101936.69;1375738;93;22336;-80
2022/03/17 11:32:05;;;;;;;39.53;25.47;;;;;;;13.26;35.49;101943.05;1391010;93;22461;-81
2022/03/17 11:34:46;;;;;;;35.10;24.93;;;;;;;13.31;36.84;101934.21;1399274;93;22425;-80